createdAt,value
2018-06-02T00:01:15.161Z,61.13
2018-06-02T00:03:43.521Z,61.77
2018-06-02T00:06:11.856Z,58.87
2018-06-02T00:08:40.216Z,55.00
2018-06-02T00:11:08.607Z,60.37
2018-06-02T00:13:36.916Z,55.50
2018-06-02T00:16:05.257Z,55.30
2018-06-02T00:18:33.611Z,54.50
2018-06-02T00:21:01.955Z,57.83
2018-06-02T00:23:30.304Z,65.13
2018-06-02T00:25:58.645Z,59.47
2018-06-02T00:28:27.005Z,58.60
2018-06-02T00:30:55.340Z,56.60
2018-06-02T00:33:23.700Z,54.23
2018-06-02T00:35:52.805Z,57.27
2018-06-02T00:38:21.180Z,53.93
2018-06-02T00:40:49.516Z,52.67
2018-06-02T00:43:17.852Z,58.47
2018-06-02T00:45:46.208Z,59.67
2018-06-02T00:48:14.544Z,59.13
2018-06-02T00:50:42.909Z,61.20
2018-06-02T00:53:11.253Z,53.00
2018-06-02T00:55:39.640Z,69.40
2018-06-02T00:58:07.968Z,60.30
2018-06-02T01:00:36.332Z,61.73
2018-06-02T01:03:04.668Z,61.17
2018-06-02T01:05:33.030Z,61.10
2018-06-02T01:08:01.360Z,68.50
2018-06-02T01:10:29.716Z,63.90
2018-06-02T01:12:58.058Z,66.50
2018-06-02T01:15:27.220Z,71.85
2018-06-02T01:17:55.548Z,71.43
2018-06-02T01:20:23.909Z,70.93
2018-06-02T01:22:52.236Z,69.87
2018-06-02T01:25:20.593Z,73.80
2018-06-02T01:27:48.925Z,69.63
2018-06-02T01:30:17.281Z,69.93
2018-06-02T01:32:45.614Z,71.60
2018-06-02T01:35:13.972Z,76.27
2018-06-02T01:37:42.306Z,72.40
2018-06-02T01:40:10.669Z,75.60
2018-06-02T01:42:39.000Z,70.87
2018-06-02T01:45:07.332Z,72.30
2018-06-02T01:47:35.683Z,81.87
2018-06-02T01:50:04.018Z,96.60
2018-06-02T01:52:32.380Z,85.40
2018-06-02T01:55:00.707Z,88.07
2018-06-02T01:57:29.061Z,87.47
2018-06-02T01:59:57.392Z,79.57
2018-06-02T02:02:25.753Z,79.00
2018-06-02T02:04:54.088Z,85.70
2018-06-02T02:07:22.445Z,85.10
2018-06-02T02:09:50.772Z,84.43
2018-06-02T02:12:19.124Z,86.60
2018-06-02T02:14:47.513Z,87.77
2018-06-02T02:17:15.849Z,81.37
2018-06-02T02:19:44.181Z,81.07
2018-06-02T02:22:12.541Z,90.10
2018-06-02T02:24:40.868Z,93.57
2018-06-02T02:27:09.216Z,98.20
2018-06-02T02:29:37.556Z,114.50
2018-06-02T02:32:05.914Z,90.20
2018-06-02T02:34:34.248Z,105.43
2018-06-02T02:37:02.595Z,98.47
2018-06-02T02:39:30.934Z,112.70
2018-06-02T02:41:59.292Z,101.50
2018-06-02T02:44:27.624Z,104.93
2018-06-02T02:46:55.981Z,96.23
2018-06-02T02:49:24.304Z,94.50
2018-06-02T02:51:52.660Z,91.03
2018-06-02T02:54:20.997Z,121.00
2018-06-02T02:56:49.356Z,113.70
2018-06-02T02:59:17.696Z,120.63
2018-06-02T03:01:46.052Z,123.33
2018-06-02T03:04:14.396Z,127.23
2018-06-02T03:06:42.757Z,127.40
2018-06-02T03:09:11.093Z,126.80
2018-06-02T03:11:39.461Z,125.53
2018-06-02T03:14:07.788Z,145.70
2018-06-02T03:16:36.157Z,134.83
2018-06-02T03:19:04.497Z,127.90
2018-06-02T03:21:32.853Z,133.77
2018-06-02T03:24:01.188Z,130.70
2018-06-02T03:26:29.549Z,138.60
2018-06-02T03:28:57.884Z,140.63
2018-06-02T03:31:26.245Z,131.90
2018-06-02T03:33:54.591Z,112.80
2018-06-02T03:36:22.944Z,140.97
2018-06-02T03:38:51.289Z,135.10
2018-06-02T03:41:19.665Z,140.43
2018-06-02T03:43:47.999Z,125.53
2018-06-02T03:46:16.341Z,134.00
2018-06-02T03:48:44.701Z,124.00
2018-06-02T03:51:13.041Z,117.13
2018-06-02T03:53:41.393Z,120.17
2018-06-02T03:56:09.731Z,109.53
2018-06-02T03:58:38.100Z,118.17
2018-06-02T04:01:06.441Z,120.07
2018-06-02T04:03:34.801Z,108.07
2018-06-02T04:06:03.136Z,113.10
2018-06-02T04:08:31.501Z,114.17
2018-06-02T04:10:59.836Z,101.77
2018-06-02T04:13:28.204Z,116.67
2018-06-02T04:15:56.594Z,114.90
2018-06-02T04:18:24.891Z,116.20
2018-06-02T04:20:53.232Z,103.93
2018-06-02T04:23:21.593Z,112.47
2018-06-02T04:25:49.934Z,109.30
2018-06-02T04:28:18.287Z,111.20
2018-06-02T04:30:46.629Z,114.77
2018-06-02T04:33:14.989Z,104.70
2018-06-02T04:35:43.332Z,122.03
2018-06-02T04:38:11.685Z,102.77
2018-06-02T04:40:40.026Z,109.13
2018-06-02T04:43:08.385Z,123.27
2018-06-02T04:45:36.720Z,138.40
2018-06-02T04:48:05.083Z,143.60
2018-06-02T04:50:33.420Z,142.33
2018-06-02T04:53:01.778Z,151.27
2018-06-02T04:55:30.116Z,146.50
2018-06-02T04:57:58.476Z,140.60
2018-06-02T05:00:26.809Z,145.20
2018-06-02T05:02:55.172Z,138.47
2018-06-02T05:05:23.535Z,138.20
2018-06-02T05:07:51.872Z,152.30
2018-06-02T05:10:20.208Z,158.20
2018-06-02T05:12:48.571Z,147.00
2018-06-02T05:15:16.912Z,129.63
2018-06-02T05:17:45.280Z,131.97
2018-06-02T05:20:13.621Z,128.03
2018-06-02T05:22:41.976Z,125.13
2018-06-02T05:25:10.317Z,124.27
2018-06-02T05:27:38.672Z,123.13
2018-06-02T05:30:07.008Z,130.20
2018-06-02T05:32:35.364Z,134.30
2018-06-02T05:35:03.705Z,123.57
2018-06-02T05:37:32.066Z,121.33
2018-06-02T05:40:00.403Z,114.70
2018-06-02T05:42:28.756Z,117.53
2018-06-02T05:44:57.123Z,109.83
2018-06-02T05:47:25.466Z,108.67
2018-06-02T05:49:53.828Z,113.93
2018-06-02T05:52:22.188Z,120.93
2018-06-02T05:54:50.554Z,113.17
2018-06-02T05:57:18.892Z,118.20
2018-06-02T05:59:47.258Z,112.47
2018-06-02T06:02:15.601Z,105.03
2018-06-02T06:04:43.960Z,107.63
2018-06-02T06:07:12.304Z,107.80
2018-06-02T06:09:40.664Z,108.03
2018-06-02T06:12:09.015Z,102.70
2018-06-02T06:14:37.376Z,105.73
2018-06-02T06:17:05.709Z,95.07
2018-06-02T06:19:34.116Z,101.00
2018-06-02T06:22:02.404Z,93.97
2018-06-02T06:24:30.769Z,108.97
2018-06-02T06:26:59.122Z,94.23
2018-06-02T06:29:27.466Z,90.97
2018-06-02T06:31:55.798Z,89.17
2018-06-02T06:34:24.153Z,95.47
2018-06-02T06:36:52.488Z,79.40
2018-06-02T06:39:20.840Z,89.03
2018-06-02T06:41:49.179Z,87.67
2018-06-02T06:44:17.537Z,87.53
2018-06-02T06:46:45.874Z,87.93
2018-06-02T06:49:14.237Z,91.60
2018-06-02T06:51:42.573Z,91.47
2018-06-02T06:54:10.933Z,89.70
2018-06-02T06:56:39.268Z,108.20
2018-06-02T06:59:07.633Z,101.80
2018-06-02T07:01:35.973Z,93.57
2018-06-02T07:04:04.332Z,96.00
2018-06-02T07:06:32.656Z,93.90
2018-06-02T07:09:01.071Z,95.63
2018-06-02T07:11:29.359Z,99.97
2018-06-02T07:13:57.720Z,107.73
2018-06-02T07:16:26.072Z,114.00
2018-06-02T07:18:54.432Z,111.47
2018-06-02T07:21:22.789Z,104.20
2018-06-02T07:23:51.161Z,103.72
2018-06-02T07:26:19.500Z,116.00
2018-06-02T07:28:47.865Z,111.60
2018-06-02T07:31:16.217Z,101.77
2018-06-02T07:33:44.586Z,114.10
2018-06-02T07:36:12.929Z,102.63
2018-06-02T07:38:41.296Z,106.23
2018-06-02T07:41:09.695Z,107.93
2018-06-02T07:43:38.038Z,100.50
2018-06-02T07:46:06.394Z,99.13
2018-06-02T07:48:34.737Z,106.70
2018-06-02T07:51:03.105Z,95.72
2018-06-02T07:53:31.452Z,91.30
2018-06-02T07:55:59.809Z,97.17
2018-06-02T07:58:28.148Z,92.47
2018-06-02T08:00:56.520Z,93.45
2018-06-02T08:03:24.856Z,83.23
2018-06-02T08:05:53.217Z,96.83
2018-06-02T08:08:21.596Z,87.60
2018-06-02T08:10:49.924Z,84.90
2018-06-02T08:13:18.271Z,87.97
2018-06-02T08:15:46.632Z,86.47
2018-06-02T08:18:14.976Z,80.18
2018-06-02T08:20:43.340Z,82.87
2018-06-02T08:23:11.676Z,69.10
2018-06-02T08:25:40.041Z,77.23
2018-06-02T08:28:09.058Z,77.33
2018-06-02T08:30:37.425Z,67.10
2018-06-02T08:33:05.765Z,65.00
2018-06-02T08:35:34.134Z,67.28
2018-06-02T08:38:02.472Z,72.53
2018-06-02T08:40:30.837Z,71.73
2018-06-02T08:42:59.179Z,62.63
2018-06-02T08:45:27.541Z,67.13
2018-06-02T08:47:55.880Z,65.80
2018-06-02T08:50:24.250Z,68.80
2018-06-02T08:52:52.592Z,62.07
2018-06-02T08:55:20.958Z,69.32
2018-06-02T08:57:49.302Z,63.63
2018-06-02T09:00:17.668Z,57.07
2018-06-02T09:02:46.013Z,64.10
2018-06-02T09:05:14.380Z,60.57
2018-06-02T09:07:42.713Z,71.70
2018-06-02T09:10:11.084Z,60.20
2018-06-02T09:12:39.459Z,67.53
2018-06-02T09:15:07.825Z,62.40
2018-06-02T09:17:36.168Z,63.87
2018-06-02T09:20:04.525Z,67.27
2018-06-02T09:22:32.860Z,57.83
2018-06-02T09:25:01.240Z,70.43
2018-06-02T09:27:29.583Z,65.60
2018-06-02T09:29:57.949Z,76.10
2018-06-02T09:32:26.294Z,68.83
2018-06-02T09:34:54.665Z,67.53
2018-06-02T09:37:23.009Z,69.18
2018-06-02T09:39:51.375Z,71.70
2018-06-02T09:42:19.710Z,60.22
2018-06-02T09:44:48.081Z,63.17
2018-06-02T09:47:16.425Z,70.77
2018-06-02T09:49:44.768Z,63.60
2018-06-02T09:52:13.121Z,59.53
2018-06-02T09:54:41.477Z,62.20
2018-06-02T09:57:09.844Z,50.90
2018-06-02T09:59:38.176Z,55.22
2018-06-02T10:02:06.542Z,57.90
2018-06-02T10:04:34.924Z,54.87
2018-06-02T10:07:03.236Z,57.23
2018-06-02T10:09:31.581Z,77.10
2018-06-02T10:11:59.958Z,51.60
2018-06-02T10:14:28.289Z,53.10
2018-06-02T10:16:56.648Z,49.20
2018-06-02T10:19:24.984Z,54.97
2018-06-02T10:21:53.469Z,63.73
2018-06-02T10:24:21.806Z,53.43
2018-06-02T10:26:50.171Z,51.40
2018-06-02T10:29:18.508Z,45.57
2018-06-02T10:31:46.876Z,36.30
2018-06-02T10:34:15.212Z,36.60
2018-06-02T10:36:43.574Z,34.47
2018-06-02T10:39:11.924Z,39.87
2018-06-02T10:41:40.283Z,36.77
2018-06-02T10:44:09.393Z,40.08
2018-06-02T10:46:37.752Z,50.17
2018-06-02T10:49:06.093Z,36.30
2018-06-02T10:51:34.461Z,34.50
2018-06-02T10:54:02.805Z,37.57
2018-06-02T10:56:31.165Z,35.45
2018-06-02T10:58:59.504Z,31.80
2018-06-02T11:01:27.873Z,32.70
2018-06-02T11:03:57.024Z,29.77
2018-06-02T11:06:25.381Z,31.13
2018-06-02T11:08:53.720Z,37.20
2018-06-02T11:11:22.087Z,35.25
2018-06-02T11:13:50.419Z,28.27
2018-06-02T11:16:18.781Z,37.58
2018-06-02T11:18:47.122Z,34.08
2018-06-02T11:21:15.481Z,46.60
2018-06-02T11:23:44.758Z,33.83
2018-06-02T11:26:13.117Z,28.13
2018-06-02T11:28:41.568Z,24.03
2018-06-02T11:31:09.930Z,26.17
2018-06-02T11:33:38.269Z,25.90
2018-06-02T11:36:06.628Z,25.27
2018-06-02T11:38:34.964Z,22.67
2018-06-02T11:41:03.333Z,21.97
2018-06-02T11:43:31.681Z,33.50
2018-06-02T11:46:00.047Z,27.80
2018-06-02T11:48:28.380Z,24.30
2018-06-02T11:50:56.725Z,31.57
2018-06-02T11:53:25.088Z,26.30
2018-06-02T11:55:53.437Z,29.57
2018-06-02T11:58:21.798Z,30.53
2018-06-02T12:00:50.144Z,26.63
2018-06-02T12:03:19.221Z,27.83
2018-06-02T12:05:47.565Z,25.03
2018-06-02T12:08:15.930Z,27.20
2018-06-02T12:10:44.269Z,26.12
2018-06-02T12:13:12.632Z,33.03
2018-06-02T12:15:40.972Z,28.70
2018-06-02T12:18:09.329Z,27.73
2018-06-02T12:20:37.710Z,25.60
2018-06-02T12:23:06.048Z,27.67
2018-06-02T12:25:34.392Z,31.13
2018-06-02T12:28:02.750Z,27.50
2018-06-02T12:30:31.093Z,24.13
2018-06-02T12:32:59.456Z,31.40
2018-06-02T12:35:27.821Z,25.33
2018-06-02T12:37:56.181Z,27.00
2018-06-02T12:40:24.533Z,25.40
2018-06-02T12:42:52.889Z,24.83
2018-06-02T12:45:21.231Z,21.35
2018-06-02T12:47:49.597Z,19.17
2018-06-02T12:50:17.937Z,18.75
2018-06-02T12:52:46.297Z,18.40
2018-06-02T12:55:14.633Z,26.13
2018-06-02T12:57:43.001Z,21.40
2018-06-02T13:00:11.339Z,19.13
2018-06-02T13:02:39.696Z,18.60
2018-06-02T13:05:08.033Z,18.17
2018-06-02T13:07:36.396Z,15.10
2018-06-02T13:10:04.741Z,25.20
2018-06-02T13:12:33.105Z,17.58
2018-06-02T13:15:01.445Z,18.43
2018-06-02T13:17:29.808Z,16.53
2018-06-02T13:19:58.149Z,18.27
2018-06-02T13:22:26.509Z,17.90
2018-06-02T13:24:54.852Z,24.12
2018-06-02T13:27:23.218Z,16.50
2018-06-02T13:29:51.557Z,16.35
2018-06-02T13:32:19.917Z,22.00
2018-06-02T13:34:49.173Z,18.87
2018-06-02T13:37:17.538Z,17.47
2018-06-02T13:39:45.881Z,18.90
2018-06-02T13:42:15.143Z,19.90
2018-06-02T13:44:43.484Z,25.15
2018-06-02T13:47:11.852Z,20.42
2018-06-02T13:49:40.188Z,21.40
2018-06-02T13:52:08.526Z,18.70
2018-06-02T13:54:36.880Z,18.60
2018-06-02T13:57:05.224Z,21.77
2018-06-02T13:59:33.585Z,26.17
2018-06-02T14:02:01.920Z,24.17
2018-06-02T14:04:30.280Z,27.33
2018-06-02T14:06:58.620Z,24.40
2018-06-02T14:09:26.985Z,25.55
2018-06-02T14:11:55.317Z,39.30
2018-06-02T14:14:23.673Z,35.63
2018-06-02T14:16:52.020Z,31.90
2018-06-02T14:19:20.388Z,26.93
2018-06-02T14:21:48.735Z,26.30
2018-06-02T14:24:17.089Z,30.73
2018-06-02T14:26:45.428Z,24.48
2018-06-02T14:29:13.783Z,29.70
2018-06-02T14:31:42.123Z,27.57
2018-06-02T14:34:10.493Z,27.33
2018-06-02T14:36:38.837Z,25.23
2018-06-02T14:39:07.201Z,28.23
2018-06-02T14:41:35.563Z,29.77
2018-06-02T14:44:03.941Z,35.47
2018-06-02T14:46:32.274Z,30.73
2018-06-02T14:49:00.634Z,27.58
2018-06-02T14:51:28.977Z,34.93
2018-06-02T14:53:57.332Z,31.07
2018-06-02T14:56:25.676Z,33.03
2018-06-02T14:58:54.037Z,29.57
2018-06-02T15:01:22.388Z,32.97
2018-06-02T15:03:50.768Z,34.67
2018-06-02T15:06:19.110Z,32.05
2018-06-02T15:08:47.469Z,31.37
2018-06-02T15:11:15.838Z,31.33
2018-06-02T15:13:44.168Z,29.95
2018-06-02T15:16:12.509Z,33.03
2018-06-02T15:18:40.873Z,34.93
2018-06-02T15:21:09.207Z,27.58
2018-06-02T15:23:37.560Z,30.00
2018-06-02T15:26:05.897Z,33.10
2018-06-02T15:28:34.256Z,30.15
2018-06-02T15:31:02.905Z,37.17
2018-06-02T15:33:31.669Z,29.10
2018-06-02T15:36:02.298Z,30.40
2018-06-02T15:38:31.010Z,31.87
2018-06-02T15:40:59.733Z,36.13
2018-06-02T15:43:28.496Z,37.57
2018-06-02T15:45:57.175Z,37.28
2018-06-02T15:48:25.879Z,29.50
2018-06-02T15:50:54.664Z,36.45
2018-06-02T15:53:23.470Z,29.90
2018-06-02T15:55:52.238Z,36.00
2018-06-02T15:58:20.601Z,28.50
2018-06-02T16:00:48.959Z,39.83
2018-06-02T16:03:17.300Z,37.83
2018-06-02T16:05:45.666Z,33.00
2018-06-02T16:08:14.000Z,35.33
2018-06-02T16:10:42.360Z,27.80
2018-06-02T16:13:10.695Z,32.17
2018-06-02T16:15:39.057Z,33.90
2018-06-02T16:18:07.393Z,32.77
2018-06-02T16:20:35.752Z,32.77
2018-06-02T16:23:04.098Z,38.20
2018-06-02T16:25:32.448Z,42.88
2018-06-02T16:28:00.792Z,43.40
2018-06-02T16:30:29.152Z,39.13
2018-06-02T16:32:58.554Z,34.45
2018-06-02T16:35:26.913Z,38.30
2018-06-02T16:37:55.253Z,31.30
2018-06-02T16:40:23.621Z,37.47
2018-06-02T16:43:30.801Z,35.37
2018-06-02T16:45:59.901Z,36.53
2018-06-02T16:48:28.979Z,33.90
2018-06-02T16:50:58.084Z,41.08
2018-06-02T16:53:27.158Z,33.07
2018-06-02T16:55:56.276Z,35.17
2018-06-02T16:58:25.400Z,39.85
2018-06-02T17:00:54.512Z,40.83
2018-06-02T17:03:23.704Z,36.58
2018-06-02T17:05:52.813Z,39.98
2018-06-02T17:08:21.898Z,37.13
2018-06-02T17:10:51.081Z,40.83
2018-06-02T17:13:20.156Z,39.48
2018-06-02T17:15:49.284Z,34.30
2018-06-02T17:18:19.378Z,40.92
2018-06-02T17:20:48.493Z,36.73
2018-06-02T17:23:17.568Z,36.43
2018-06-02T17:25:46.692Z,37.90
2018-06-02T17:28:15.773Z,38.40
2018-06-02T17:30:44.901Z,34.73
2018-06-02T17:33:14.036Z,40.27
2018-06-02T17:35:43.169Z,38.48
2018-06-02T17:38:12.336Z,43.23
2018-06-02T17:40:41.433Z,44.30
2018-06-02T17:43:10.520Z,43.08
2018-06-02T17:45:39.733Z,38.75
2018-06-02T17:48:08.818Z,37.83
2018-06-02T17:50:37.913Z,40.37
2018-06-02T17:53:07.100Z,44.33
2018-06-02T17:55:36.221Z,35.17
2018-06-02T17:58:05.397Z,41.00
2018-06-02T18:00:34.501Z,41.92
2018-06-02T18:03:03.592Z,43.10
2018-06-02T18:05:32.704Z,46.63
2018-06-02T18:08:01.793Z,43.10
2018-06-02T18:10:30.900Z,39.30
2018-06-02T18:13:00.002Z,43.25
2018-06-02T18:15:29.104Z,40.33
2018-06-02T18:17:58.245Z,40.47
2018-06-02T18:20:27.564Z,49.90
2018-06-02T18:22:56.654Z,39.17
2018-06-02T18:25:25.860Z,37.90
2018-06-02T18:27:55.033Z,37.20
2018-06-02T18:30:24.249Z,47.20
2018-06-02T18:32:53.352Z,49.20
2018-06-02T18:35:22.465Z,45.83
2018-06-02T18:37:51.621Z,48.83
2018-06-02T18:40:21.753Z,44.40
2018-06-02T18:42:50.924Z,54.50
2018-06-02T18:45:20.041Z,53.90
2018-06-02T18:47:49.132Z,44.97
2018-06-02T18:50:18.233Z,49.03
2018-06-02T18:52:47.405Z,51.23
2018-06-02T18:55:16.521Z,46.67
2018-06-02T18:57:45.614Z,51.00
2018-06-02T19:00:14.737Z,50.83
2018-06-02T19:02:43.817Z,47.83
2018-06-02T19:05:13.000Z,41.70
2018-06-02T19:07:42.176Z,43.70
2018-06-02T19:10:11.284Z,46.60
2018-06-02T19:12:40.388Z,48.60
2018-06-02T19:15:10.576Z,57.13
2018-06-02T19:17:39.699Z,52.83
2018-06-02T19:20:08.777Z,51.45
2018-06-02T19:22:38.005Z,54.43
2018-06-02T19:25:07.170Z,53.57
2018-06-02T19:27:36.273Z,45.87
2018-06-02T19:30:06.353Z,55.17
2018-06-02T19:32:35.460Z,53.57
2018-06-02T19:35:04.565Z,51.87
2018-06-02T19:37:33.700Z,54.20
2018-06-02T19:40:02.861Z,52.13
2018-06-02T19:42:31.976Z,50.92
2018-06-02T19:45:01.149Z,49.60
2018-06-02T19:47:30.364Z,58.20
2018-06-02T19:49:59.457Z,53.00
2018-06-02T19:52:28.657Z,51.77
2018-06-02T19:54:57.827Z,48.10
2018-06-02T19:57:26.969Z,52.43
2018-06-02T19:59:56.062Z,56.47
2018-06-02T20:02:25.252Z,45.23
2018-06-02T20:04:54.341Z,57.73
2018-06-02T20:07:23.453Z,53.37
2018-06-02T20:09:53.620Z,49.10
2018-06-02T20:12:22.737Z,53.80
2018-06-02T20:14:51.886Z,47.00
2018-06-02T20:17:20.976Z,47.10
2018-06-02T20:19:50.437Z,47.97
2018-06-02T20:22:19.549Z,45.60
2018-06-02T20:24:52.180Z,45.67
2018-06-02T20:27:22.320Z,48.17
2018-06-02T20:29:51.432Z,46.63
2018-06-02T20:32:20.552Z,48.93
2018-06-02T20:34:49.659Z,44.90
2018-06-02T20:37:18.813Z,51.02
2018-06-02T20:39:47.992Z,52.70
2018-06-02T20:42:17.113Z,51.00
2018-06-02T20:44:46.220Z,57.13
2018-06-02T20:47:15.354Z,47.20
2018-06-02T20:49:44.456Z,49.87
2018-06-02T20:52:13.586Z,56.27
2018-06-02T20:54:42.689Z,48.93
2018-06-02T20:57:12.889Z,49.13
2018-06-02T20:59:41.993Z,52.67
2018-06-02T21:02:11.117Z,58.53
2018-06-02T21:04:40.256Z,51.47
2018-06-02T21:07:09.745Z,53.38
2018-06-02T21:09:38.832Z,49.95
2018-06-02T21:12:07.959Z,47.53
2018-06-02T21:14:37.055Z,47.08
2018-06-02T21:17:06.178Z,59.83
2018-06-02T21:19:35.293Z,59.75
2018-06-02T21:22:04.429Z,47.00
2018-06-02T21:24:33.663Z,48.15
2018-06-02T21:27:02.768Z,42.93
2018-06-02T21:29:31.909Z,54.05
2018-06-02T21:32:01.037Z,54.33
2018-06-02T21:34:30.139Z,49.00
2018-06-02T21:36:59.293Z,51.67
2018-06-02T21:39:28.380Z,48.73
2018-06-02T21:41:57.614Z,48.97
2018-06-02T21:44:26.708Z,46.43
2018-06-02T21:46:55.833Z,41.63
2018-06-02T21:49:24.983Z,47.17
2018-06-02T21:51:54.059Z,53.53
2018-06-02T21:54:23.248Z,45.75
2018-06-02T21:56:52.376Z,45.37
2018-06-02T21:59:21.558Z,44.03
2018-06-02T22:01:50.706Z,48.00
2018-06-02T22:04:19.784Z,46.60
2018-06-02T22:06:48.904Z,39.73
2018-06-02T22:09:18.029Z,46.07
2018-06-02T22:11:47.138Z,49.50
2018-06-02T22:14:16.325Z,47.10
2018-06-02T22:16:45.438Z,44.40
2018-06-02T22:19:14.552Z,40.73
2018-06-02T22:21:43.637Z,38.83
2018-06-02T22:24:12.769Z,32.33
2018-06-02T22:26:42.360Z,35.70
2018-06-02T22:29:11.496Z,38.40
2018-06-02T22:31:40.597Z,30.70
2018-06-02T22:34:09.725Z,36.73
2018-06-02T22:36:38.812Z,38.70
2018-06-02T22:39:08.020Z,41.30
2018-06-02T22:41:37.105Z,42.93
2018-06-02T22:44:06.201Z,38.73
2018-06-02T22:46:35.347Z,47.27
2018-06-02T22:49:04.466Z,42.47
2018-06-02T22:51:44.725Z,56.00
2018-06-02T22:54:13.929Z,52.05
2018-06-02T22:56:43.072Z,46.30
2018-06-02T22:59:13.224Z,48.80
2018-06-02T23:01:42.341Z,48.90
2018-06-02T23:04:11.261Z,58.47
2018-06-02T23:06:40.136Z,46.65
2018-06-02T23:09:08.980Z,51.08
2018-06-02T23:11:37.773Z,50.35
2018-06-02T23:14:06.592Z,52.47
2018-06-02T23:16:35.392Z,48.87
2018-06-02T23:19:04.213Z,55.47
2018-06-02T23:21:33.505Z,51.70
2018-06-02T23:24:02.325Z,55.20
2018-06-02T23:26:31.113Z,53.00
2018-06-02T23:28:59.937Z,57.33
2018-06-02T23:31:28.748Z,59.33
2018-06-02T23:33:57.568Z,50.05
2018-06-02T23:36:26.433Z,48.33
2018-06-02T23:38:55.265Z,59.60
2018-06-02T23:41:24.100Z,62.70
2018-06-02T23:43:52.923Z,85.93
2018-06-02T23:46:21.730Z,57.37
2018-06-02T23:48:50.553Z,56.13
2018-06-02T23:51:19.357Z,60.90
2018-06-02T23:53:48.181Z,59.50
2018-06-02T23:56:16.981Z,61.98
2018-06-02T23:58:45.797Z,63.20
